createdAt,value
2023-02-04T00:00:10.004Z,99768.27
2023-02-04T00:01:14.451Z,99774.41
2023-02-04T00:02:17.542Z,99769.12
2023-02-04T00:03:19.998Z,99768.53
2023-02-04T00:04:26.709Z,99772.23
2023-02-04T00:05:29.469Z,99772.16
2023-02-04T00:06:32.754Z,99772.09
2023-02-04T00:07:35.480Z,99766.92
2023-02-04T00:08:38.586Z,99767.73
2023-02-04T00:09:42.520Z,99765.22
2023-02-04T00:10:45.845Z,99768.63
2023-02-04T00:11:49.119Z,99761.78
2023-02-04T00:12:52.338Z,99759.38
2023-02-04T00:13:55.404Z,99765.71
2023-02-04T00:14:59.641Z,99765.66
2023-02-04T00:16:03.028Z,99760.48
2023-02-04T00:17:08.201Z,99767.61
2023-02-04T00:18:11.689Z,99767.66
2023-02-04T00:19:14.980Z,99767.81
2023-02-04T00:20:19.032Z,99768.71
2023-02-04T00:21:22.132Z,99765.40
2023-02-04T00:22:27.293Z,99767.16
2023-02-04T00:23:30.610Z,99771.71
2023-02-04T00:24:34.451Z,99767.48
2023-02-04T00:25:36.913Z,99765.88
2023-02-04T00:26:41.901Z,99768.49
2023-02-04T00:27:44.489Z,99764.13
2023-02-04T00:28:47.002Z,99764.13
2023-02-04T00:29:50.400Z,99769.34
2023-02-04T00:30:53.751Z,99765.88
2023-02-04T00:31:59.057Z,99761.73
2023-02-04T00:33:03.668Z,99762.59
2023-02-04T00:34:07.762Z,99763.50
2023-02-04T00:35:14.151Z,99763.59
2023-02-04T00:36:18.872Z,99761.94
2023-02-04T00:37:21.914Z,99762.94
2023-02-04T00:38:25.352Z,99761.36
2023-02-04T00:39:31.288Z,99762.59
2023-02-04T00:40:34.376Z,99761.55
2023-02-04T00:41:39.975Z,99766.67
2023-02-04T00:42:44.207Z,99765.73
2023-02-04T00:43:46.679Z,99770.72
2023-02-04T00:44:51.242Z,99766.25
2023-02-04T00:45:54.303Z,99771.48
2023-02-04T00:46:58.722Z,99767.06
2023-02-04T00:48:01.902Z,99762.84
2023-02-04T00:49:08.067Z,99764.50
2023-02-04T00:50:11.395Z,99761.03
2023-02-04T00:51:15.653Z,99769.58
2023-02-04T00:52:19.873Z,99767.91
2023-02-04T00:53:24.559Z,99771.28
2023-02-04T00:54:27.855Z,99767.77
2023-02-04T00:55:31.070Z,99772.28
2023-02-04T00:56:35.312Z,99768.02
2023-02-04T00:57:40.461Z,99765.35
2023-02-04T00:58:43.617Z,99760.22
2023-02-04T00:59:47.419Z,99769.67
2023-02-04T01:00:51.464Z,99767.91
2023-02-04T01:01:54.716Z,99765.30
2023-02-04T01:02:58.747Z,99776.70
2023-02-04T01:04:04.798Z,99774.95
2023-02-04T01:05:09.017Z,99770.58
2023-02-04T01:06:12.702Z,99769.62
2023-02-04T01:07:15.119Z,99763.45
2023-02-04T01:08:17.607Z,99767.64
2023-02-04T01:09:19.788Z,99764.02
2023-02-04T01:10:23.146Z,99773.47
2023-02-04T01:11:25.708Z,99772.47
2023-02-04T01:12:31.231Z,99762.97
2023-02-04T01:13:34.485Z,99769.95
2023-02-04T08:16:16.673Z,99977.41
2023-02-04T08:17:20.604Z,99988.04
2023-02-04T08:18:25.823Z,99989.59
2023-02-04T08:19:29.134Z,99990.55
2023-02-04T08:20:32.836Z,99990.50
2023-02-04T08:21:37.057Z,99989.43
2023-02-04T08:22:40.742Z,99989.54
2023-02-04T08:23:45.988Z,99994.78
2023-02-04T08:24:49.029Z,99986.83
2023-02-04T08:25:52.082Z,99994.22
2023-02-04T08:26:55.424Z,99993.31
2023-02-04T08:27:58.449Z,99991.33
2023-02-04T08:29:01.869Z,99998.23
2023-02-04T08:30:05.159Z,99995.97
2023-02-04T08:31:10.409Z,99998.38
2023-02-04T08:32:17.748Z,100000.98
2023-02-04T08:33:21.980Z,99997.19
2023-02-04T08:34:25.005Z,99997.10
2023-02-04T08:35:28.422Z,99998.17
2023-02-04T08:36:30.814Z,100000.02
2023-02-04T08:37:33.558Z,99998.00
2023-02-04T08:38:35.855Z,100003.14
2023-02-04T08:39:39.674Z,100008.11
2023-02-04T08:40:45.015Z,100007.69
2023-02-04T08:41:50.447Z,100001.38
2023-02-04T08:42:54.141Z,100012.92
2023-02-04T08:43:57.005Z,100009.80
2023-02-04T08:45:00.251Z,100013.52
2023-02-04T08:46:03.197Z,100013.30
2023-02-04T08:47:08.226Z,100008.48
2023-02-04T08:48:11.481Z,100015.33
2023-02-04T08:49:15.590Z,100012.55
2023-02-04T08:50:18.871Z,100019.82
2023-02-04T08:51:21.872Z,100018.20
2023-02-04T08:52:25.158Z,100013.56
2023-02-04T08:53:27.718Z,100012.20
2023-02-04T08:54:30.257Z,100013.45
2023-02-04T08:55:33.333Z,100011.28
2023-02-04T08:56:37.958Z,100010.31
2023-02-04T08:57:41.490Z,100015.91
2023-02-04T08:58:45.600Z,100011.25
2023-02-04T08:59:51.764Z,100014.09
2023-02-04T09:00:53.975Z,100016.77
2023-02-04T09:01:57.375Z,100014.42
2023-02-04T09:03:02.931Z,100012.81
2023-02-04T09:04:09.254Z,100016.24
2023-02-04T09:05:11.500Z,100015.08
2023-02-04T09:06:14.660Z,100017.23
2023-02-04T09:07:18.004Z,100015.89
2023-02-04T09:08:21.126Z,100019.67
2023-02-04T09:09:26.435Z,100011.56
2023-02-04T09:10:30.298Z,100016.75
2023-02-04T09:11:32.730Z,100016.34
2023-02-04T09:12:35.213Z,100022.44
2023-02-04T09:13:40.434Z,100025.39
2023-02-04T09:14:44.700Z,100018.19
2023-02-04T09:15:47.804Z,100020.91
2023-02-04T09:16:52.547Z,100019.05
2023-02-04T09:18:04.546Z,100020.58
2023-02-04T09:19:10.453Z,100019.42
2023-02-04T09:20:14.399Z,100015.69
2023-02-04T09:21:19.380Z,100021.14
2023-02-04T09:22:22.880Z,100019.47
2023-02-04T09:23:26.139Z,100015.49
2023-02-04T09:24:30.302Z,100021.59
2023-02-04T09:25:33.613Z,100020.27
2023-02-04T09:26:35.737Z,100026.91
2023-02-04T09:27:39.641Z,100016.09
2023-02-04T09:29:46.847Z,100022.64
2023-02-04T09:30:49.138Z,100015.86
2023-02-04T09:31:51.809Z,100024.38
2023-02-04T09:32:56.552Z,100014.48
2023-02-04T09:34:00.156Z,100023.91
2023-02-04T09:35:03.252Z,100024.11
2023-02-04T09:36:05.775Z,100022.23
2023-02-04T09:37:10.647Z,100014.15
2023-02-04T09:38:13.957Z,100016.47
2023-02-04T09:39:17.176Z,100018.64
2023-02-04T09:40:21.139Z,100015.86
2023-02-04T09:41:24.719Z,100020.11
2023-02-04T09:42:31.077Z,100013.05
2023-02-04T09:43:36.206Z,100016.36
2023-02-04T09:44:39.640Z,100015.91
2023-02-04T09:45:43.298Z,100019.77
2023-02-04T09:46:51.008Z,100015.22
2023-02-04T09:47:56.487Z,100021.08
2023-02-04T09:49:02.849Z,100022.05
2023-02-04T09:50:06.395Z,100011.25
2023-02-04T09:51:10.686Z,100015.66
2023-02-04T09:52:16.790Z,100019.89
2023-02-04T09:53:29.344Z,100021.27
2023-02-04T09:54:32.686Z,100014.47
2023-02-04T09:55:37.132Z,100027.28
2023-02-04T09:56:40.903Z,100019.83
2023-02-04T09:57:44.129Z,100019.66
2023-02-04T09:58:47.594Z,100016.14
2023-02-04T09:59:52.106Z,100019.61
2023-02-04T10:01:14.892Z,100015.79
2023-02-04T10:02:20.225Z,100021.70
2023-02-04T10:03:22.803Z,100025.34
2023-02-04T10:04:27.233Z,100021.42
2023-02-04T10:05:31.748Z,100022.44
2023-02-04T10:06:35.078Z,100026.67
2023-02-04T10:07:38.228Z,100030.48
2023-02-04T10:08:40.754Z,100031.50
2023-02-04T10:09:44.130Z,100032.26
2023-02-04T10:10:48.874Z,100029.53
2023-02-04T10:11:53.832Z,100028.67
2023-02-04T10:12:58.926Z,100026.67
2023-02-04T10:14:02.212Z,100028.78
2023-02-04T10:15:08.479Z,100032.36
2023-02-04T10:16:17.437Z,100036.63
2023-02-04T10:17:24.480Z,100034.59
2023-02-04T10:18:29.623Z,100031.61
2023-02-04T10:19:34.702Z,100035.30
2023-02-04T10:20:37.923Z,100033.42
2023-02-04T10:21:42.488Z,100040.08
2023-02-04T10:22:45.141Z,100038.41
2023-02-04T10:23:50.171Z,100048.53
2023-02-04T10:24:53.357Z,100048.24
2023-02-04T10:25:55.659Z,100030.67
2023-02-04T10:27:03.749Z,100040.14
2023-02-04T10:28:06.952Z,100042.30
2023-02-04T10:29:17.344Z,100041.75
2023-02-04T10:30:22.192Z,100053.42
2023-02-04T10:31:38.430Z,100044.59
2023-02-04T10:32:41.815Z,100049.56
2023-02-04T10:33:44.238Z,100050.92
2023-02-04T10:34:48.472Z,100052.27
2023-02-04T10:35:52.977Z,100061.47
2023-02-04T10:36:57.532Z,100057.19
2023-02-04T10:38:04.316Z,100056.31
2023-02-04T10:39:11.876Z,100050.04
2023-02-04T13:35:43.078Z,100230.33
2023-02-04T13:36:46.572Z,100242.14
2023-02-04T13:37:49.732Z,100247.56
2023-02-04T13:38:52.929Z,100246.74
2023-02-04T13:39:55.573Z,100240.53
2023-02-04T13:40:58.640Z,100242.25
2023-02-04T13:42:04.216Z,100248.84
2023-02-04T13:43:08.906Z,100251.03
2023-02-04T13:44:12.325Z,100252.05
2023-02-04T13:45:16.605Z,100252.55
2023-02-04T13:46:20.115Z,100250.25
2023-02-04T13:47:25.208Z,100254.89
2023-02-04T13:48:28.291Z,100251.64
2023-02-04T13:49:30.729Z,100258.33
2023-02-04T13:50:34.005Z,100254.51
2023-02-04T13:53:02.659Z,100263.29
2023-02-04T13:54:05.295Z,100268.56
2023-02-04T13:55:09.086Z,100261.06
2023-02-04T13:56:15.207Z,100274.72
2023-02-04T13:57:17.396Z,100274.46
2023-02-04T13:58:20.477Z,100272.77
2023-02-04T13:59:23.708Z,100287.82
2023-02-04T14:00:26.943Z,100283.81
2023-02-04T14:01:30.462Z,100282.41
2023-02-04T14:02:33.957Z,100285.39
2023-02-04T14:03:36.542Z,100286.28
2023-02-04T14:04:38.843Z,100290.34
2023-02-04T14:05:41.277Z,100288.56
2023-02-04T14:06:44.517Z,100285.02
2023-02-04T14:07:48.621Z,100281.20
2023-02-04T14:08:51.874Z,100286.73
2023-02-04T14:09:57.148Z,100288.86
2023-02-04T14:11:03.153Z,100298.17
2023-02-04T14:12:07.020Z,100298.31
2023-02-04T14:13:10.472Z,100297.55
2023-02-04T14:14:14.115Z,100297.70
2023-02-04T14:15:17.366Z,100302.17
2023-02-04T14:16:20.732Z,100303.27
2023-02-04T14:17:26.542Z,100294.30
2023-02-04T14:18:29.669Z,100301.56
2023-02-04T14:19:33.762Z,100305.11
2023-02-04T14:20:37.125Z,100303.57
2023-02-04T14:21:40.933Z,100299.77
2023-02-04T14:22:43.224Z,100303.09
2023-02-04T14:23:46.586Z,100302.85
2023-02-04T14:24:50.820Z,100301.06
2023-02-04T14:25:54.243Z,100303.85
2023-02-04T14:26:59.560Z,100311.48
2023-02-04T14:28:05.879Z,100308.63
2023-02-04T14:29:10.579Z,100320.28
2023-02-04T14:30:21.648Z,100311.41
2023-02-04T14:31:24.848Z,100312.17
2023-02-04T14:32:27.436Z,100310.94
2023-02-04T14:33:30.491Z,100318.05
2023-02-04T14:34:35.607Z,100311.27
2023-02-04T14:35:38.819Z,100322.91
2023-02-04T14:36:45.565Z,100318.52
2023-02-04T14:37:48.749Z,100325.63
2023-02-04T14:38:51.914Z,100328.67
2023-02-04T14:39:54.164Z,100331.25
2023-02-04T14:41:00.798Z,100315.47
2023-02-04T14:42:06.964Z,100336.13
2023-02-04T14:43:12.493Z,100330.65
2023-02-04T14:44:16.749Z,100325.63
2023-02-04T14:45:20.740Z,100329.25
2023-02-04T14:46:23.329Z,100330.02
2023-02-04T14:47:26.470Z,100328.58
2023-02-04T14:48:29.641Z,100333.80
2023-02-04T14:49:33.426Z,100324.38
2023-02-04T14:50:37.805Z,100335.55
2023-02-04T14:51:40.998Z,100331.56
2023-02-04T14:52:43.258Z,100333.61
2023-02-04T14:53:48.608Z,100333.55
2023-02-04T14:54:51.936Z,100328.92
2023-02-04T14:55:54.610Z,100326.06
2023-02-04T14:56:57.886Z,100332.11
2023-02-04T14:58:00.954Z,100333.84
2023-02-04T14:59:04.248Z,100328.95
2023-02-04T15:00:08.728Z,100328.19
2023-02-04T15:01:12.133Z,100330.67
2023-02-04T15:02:17.901Z,100328.98
2023-02-04T15:03:21.080Z,100332.64
2023-02-04T15:04:25.245Z,100333.50
2023-02-04T15:05:30.371Z,100332.87
2023-02-04T15:06:34.902Z,100331.56
2023-02-04T15:07:37.661Z,100337.40
2023-02-04T15:08:40.768Z,100339.63
2023-02-04T15:09:46.167Z,100343.16
2023-02-04T15:10:50.789Z,100349.62
2023-02-04T15:11:53.340Z,100340.31
2023-02-04T15:12:56.041Z,100348.67
2023-02-04T15:14:00.310Z,100354.40
2023-02-04T15:15:03.407Z,100354.63
2023-02-04T15:16:06.701Z,100360.33
2023-02-04T15:17:11.937Z,100362.17
2023-02-04T15:18:15.061Z,100354.05
2023-02-04T15:19:18.842Z,100362.34
2023-02-04T15:20:21.833Z,100360.30
2023-02-04T15:21:27.811Z,100361.13
2023-02-04T15:22:32.141Z,100367.73
2023-02-04T15:23:34.976Z,100370.48
2023-02-04T15:24:39.466Z,100361.85
2023-02-04T15:27:04.722Z,100374.06
2023-02-04T15:28:10.909Z,100379.39
2023-02-04T15:29:13.510Z,100374.17
2023-02-04T15:31:38.688Z,100369.81
2023-02-04T15:32:44.734Z,100390.77
2023-02-04T15:33:48.056Z,100371.52
2023-02-04T15:34:53.974Z,100382.83
2023-02-04T15:35:57.016Z,100390.77
2023-02-04T15:37:02.896Z,100393.34
2023-02-04T15:38:06.179Z,100385.38
2023-02-04T15:39:09.504Z,100383.69
2023-02-04T15:40:11.805Z,100396.27
2023-02-04T15:42:34.925Z,100401.48
2023-02-04T15:43:37.647Z,100394.56
2023-02-04T15:44:40.979Z,100396.19
2023-02-04T15:45:44.410Z,100408.41
2023-02-04T15:46:49.562Z,100400.64
2023-02-04T15:47:51.980Z,100399.63
2023-02-04T15:48:55.014Z,100403.30
2023-02-04T15:49:58.263Z,100400.23
2023-02-04T15:51:01.576Z,100406.09
2023-02-04T15:52:05.814Z,100406.46
2023-02-04T15:53:09.721Z,100408.97
2023-02-04T15:54:12.632Z,100411.70
2023-02-04T15:55:15.869Z,100407.30
2023-02-04T15:56:19.220Z,100408.77
2023-02-04T15:57:22.491Z,100421.12
2023-02-04T15:58:25.718Z,100415.95
2023-02-04T15:59:31.965Z,100414.28
2023-02-04T16:00:35.684Z,100414.77
2023-02-04T16:01:37.874Z,100416.81
2023-02-04T16:02:42.083Z,100418.24
2023-02-04T16:03:48.286Z,100426.98
2023-02-04T16:04:52.106Z,100429.02
2023-02-04T16:05:57.118Z,100422.18
2023-02-04T16:07:00.684Z,100426.28
2023-02-04T16:08:04.108Z,100426.98
2023-02-04T16:09:08.772Z,100427.03
2023-02-04T16:10:12.017Z,100429.64
2023-02-04T16:11:16.156Z,100428.67
2023-02-04T16:12:18.300Z,100427.92
2023-02-04T16:13:21.557Z,100429.98
2023-02-04T16:14:24.668Z,100431.52
2023-02-04T16:15:27.818Z,100429.09
2023-02-04T16:16:30.759Z,100437.93
2023-02-04T16:17:34.176Z,100438.52
2023-02-04T16:18:37.487Z,100434.20
2023-02-04T16:19:40.804Z,100442.42
2023-02-04T16:20:44.981Z,100444.09
2023-02-04T16:21:48.538Z,100443.13
2023-02-04T16:22:51.846Z,100449.17
2023-02-04T16:23:54.285Z,100438.28
2023-02-04T16:24:57.803Z,100444.48
2023-02-04T16:26:02.029Z,100452.37
2023-02-04T16:27:05.212Z,100445.28
2023-02-04T16:28:07.492Z,100458.58
2023-02-04T16:29:10.805Z,100461.14
2023-02-04T16:30:14.634Z,100456.33
2023-02-04T16:31:18.056Z,100465.25
2023-02-04T16:32:21.520Z,100462.08
2023-02-04T16:33:26.891Z,100461.59
2023-02-04T16:34:30.069Z,100464.13
2023-02-04T16:35:35.952Z,100460.82
2023-02-04T16:36:39.481Z,100461.13
2023-02-04T16:37:43.660Z,100463.86
2023-02-04T16:38:47.212Z,100464.39
2023-02-04T16:39:53.078Z,100473.05
2023-02-04T16:40:56.527Z,100458.47
2023-02-04T16:42:00.254Z,100458.39
2023-02-04T16:43:03.588Z,100461.02
2023-02-04T16:44:06.723Z,100461.83
2023-02-04T16:45:09.330Z,100463.19
2023-02-04T16:46:14.490Z,100465.30
2023-02-04T16:47:17.689Z,100462.67
2023-02-04T16:48:20.484Z,100457.68
2023-02-04T16:49:23.220Z,100463.60
2023-02-04T16:50:29.032Z,100467.37
2023-02-04T16:51:32.088Z,100470.80
2023-02-04T16:52:35.849Z,100466.37
2023-02-04T16:53:38.292Z,100469.22
2023-02-04T16:54:42.860Z,100469.34
2023-02-04T16:55:48.077Z,100467.69
2023-02-04T16:56:52.086Z,100468.34
2023-02-04T16:57:56.676Z,100467.50
2023-02-04T16:59:01.606Z,100474.39
2023-02-04T17:00:04.605Z,100469.24
2023-02-04T17:01:07.922Z,100470.84
2023-02-04T17:02:10.571Z,100467.55
2023-02-04T17:03:13.280Z,100470.22
2023-02-04T17:04:16.452Z,100465.84
2023-02-04T17:05:18.917Z,100465.87
2023-02-04T17:06:23.056Z,100477.45
2023-02-04T17:07:25.777Z,100469.61
2023-02-04T17:08:30.914Z,100481.63
2023-02-04T17:09:33.893Z,100464.98
2023-02-04T17:10:55.223Z,100469.36
2023-02-04T17:11:58.719Z,100478.45
2023-02-04T17:13:01.961Z,100488.47
2023-02-04T17:14:06.373Z,100478.84
2023-02-04T17:15:09.762Z,100480.38
2023-02-04T17:16:13.941Z,100485.08
2023-02-04T17:17:19.989Z,100484.40
2023-02-04T17:18:23.368Z,100481.99
2023-02-04T17:19:25.870Z,100480.98
2023-02-04T17:20:30.022Z,100480.02
2023-02-04T17:21:33.351Z,100475.78
2023-02-04T17:22:36.488Z,100478.52
2023-02-04T17:23:41.829Z,100482.80
2023-02-04T17:24:45.018Z,100483.20
2023-02-04T17:25:51.911Z,100488.16
2023-02-04T17:26:55.149Z,100483.88
2023-02-04T17:27:58.411Z,100484.22
2023-02-04T17:29:01.814Z,100489.41
2023-02-04T17:30:05.299Z,100491.61
2023-02-04T17:31:08.713Z,100490.48
2023-02-04T17:32:14.078Z,100493.64
2023-02-04T17:33:18.301Z,100494.50
2023-02-04T17:34:21.478Z,100488.29
2023-02-04T17:35:23.680Z,100497.97
2023-02-04T17:36:28.197Z,100504.91
2023-02-04T17:37:33.353Z,100492.83
2023-02-04T17:38:39.079Z,100501.27
2023-02-04T17:39:41.680Z,100500.77
2023-02-04T17:40:45.095Z,100498.86
2023-02-04T17:41:48.273Z,100492.59
2023-02-04T17:42:51.576Z,100496.03
2023-02-04T17:43:55.880Z,100499.95
2023-02-04T17:44:58.932Z,100507.83
2023-02-04T17:46:02.073Z,100502.95
2023-02-04T17:47:04.564Z,100500.53
2023-02-04T17:48:08.343Z,100502.04
2023-02-04T17:49:11.076Z,100507.90
2023-02-04T17:50:14.635Z,100496.73
2023-02-04T17:51:17.592Z,100509.62
2023-02-04T17:52:20.231Z,100514.11
2023-02-04T17:53:26.590Z,100506.39
2023-02-04T17:54:28.966Z,100502.92
2023-02-04T17:55:33.055Z,100506.17
2023-02-04T17:56:36.499Z,100505.42
2023-02-04T17:57:39.992Z,100508.94
2023-02-04T17:58:43.741Z,100512.16
2023-02-04T17:59:47.500Z,100503.42
2023-02-04T18:00:51.004Z,100514.64
2023-02-04T18:01:53.950Z,100522.66
2023-02-04T18:02:59.272Z,100517.45
2023-02-04T18:04:05.216Z,100520.59
2023-02-04T18:05:10.386Z,100519.75
2023-02-04T18:06:25.548Z,100528.42
2023-02-04T18:07:29.087Z,100520.86
2023-02-04T18:08:39.746Z,100522.56
2023-02-04T18:09:43.092Z,100529.23
2023-02-04T18:10:47.313Z,100527.23
2023-02-04T18:11:50.516Z,100535.04
2023-02-04T18:12:55.280Z,100524.58
2023-02-04T18:14:00.327Z,100535.31
2023-02-04T18:15:05.326Z,100533.63
2023-02-04T18:16:17.150Z,100537.90
2023-02-04T18:17:21.290Z,100533.41
2023-02-04T18:18:26.169Z,100540.61
2023-02-04T18:19:31.753Z,100538.64
2023-02-04T18:20:35.996Z,100536.11
2023-02-04T18:21:39.507Z,100545.72
2023-02-04T18:22:42.562Z,100542.11
2023-02-04T18:23:46.412Z,100550.89
2023-02-04T18:24:49.656Z,100544.67
2023-02-04T18:25:52.512Z,100548.08
2023-02-04T18:26:56.481Z,100549.15
2023-02-04T18:28:00.943Z,100549.15
2023-02-04T18:29:06.890Z,100547.41
2023-02-04T18:30:12.199Z,100547.57
2023-02-04T18:31:37.269Z,100545.80
2023-02-04T18:32:40.930Z,100550.08
2023-02-04T18:33:45.415Z,100549.19
2023-02-04T18:34:50.415Z,100552.69
2023-02-04T18:35:56.737Z,100547.20
2023-02-04T18:37:00.988Z,100559.39
2023-02-04T18:38:07.016Z,100556.95
2023-02-04T18:39:15.314Z,100560.37
2023-02-04T18:40:27.756Z,100561.25
2023-02-04T18:41:34.284Z,100557.19
2023-02-04T18:42:41.803Z,100556.22
2023-02-04T18:43:48.628Z,100557.08
2023-02-04T18:44:52.055Z,100563.39
2023-02-04T18:45:59.911Z,100553.74
2023-02-04T18:47:04.257Z,100550.31
2023-02-04T18:48:18.474Z,100557.88
2023-02-04T18:49:25.531Z,100558.59
2023-02-04T18:50:32.982Z,100561.63
2023-02-04T18:51:41.612Z,100560.91
2023-02-04T18:52:44.842Z,100559.48
2023-02-04T18:53:49.003Z,100560.31
2023-02-04T18:54:52.900Z,100562.02
2023-02-04T18:55:58.087Z,100567.64
2023-02-04T18:57:02.618Z,100560.52
2023-02-04T18:58:24.403Z,100563.20
2023-02-04T18:59:27.676Z,100562.89
2023-02-04T19:00:32.380Z,100556.58
2023-02-04T19:01:39.802Z,100563.67
2023-02-04T19:02:44.774Z,100559.30
2023-02-04T19:03:53.123Z,100573.28
2023-02-04T19:05:12.758Z,100559.45
2023-02-04T19:06:04.444Z,100567.31
2023-02-04T19:07:08.771Z,100568.11
2023-02-04T19:08:21.066Z,100567.85
2023-02-04T19:09:31.014Z,100568.86
2023-02-04T19:10:38.897Z,100568.22
2023-02-04T19:11:44.054Z,100577.13
2023-02-04T19:12:47.256Z,100576.44
2023-02-04T19:13:52.942Z,100578.94
2023-02-04T19:14:56.263Z,100576.20
2023-02-04T19:16:06.229Z,100581.42
2023-02-04T19:17:19.513Z,100569.21
2023-02-04T19:18:24.600Z,100569.05
2023-02-04T19:19:30.713Z,100569.77
2023-02-04T19:20:33.980Z,100576.19
2023-02-04T19:21:37.034Z,100585.80
2023-02-04T19:22:47.195Z,100581.33
2023-02-04T19:23:51.323Z,100576.99
2023-02-04T19:24:59.564Z,100571.48
2023-02-04T19:26:02.042Z,100569.83
2023-02-04T19:27:06.141Z,100570.82
2023-02-04T19:28:28.572Z,100571.84
2023-02-04T19:29:33.493Z,100569.25
2023-02-04T19:30:46.332Z,100575.52
2023-02-04T19:31:49.259Z,100579.67
2023-02-04T19:32:58.229Z,100569.43
2023-02-04T19:34:03.172Z,100574.64
2023-02-04T19:35:17.218Z,100572.84
2023-02-04T19:36:34.481Z,100571.04
2023-02-04T19:37:41.702Z,100575.29
2023-02-04T19:38:48.485Z,100579.73
2023-02-04T19:39:53.340Z,100569.40
2023-02-04T19:40:56.370Z,100578.12
2023-02-04T19:42:01.723Z,100572.95
2023-02-04T19:43:17.985Z,100569.31
2023-02-04T19:44:22.611Z,100575.39
2023-02-04T19:45:28.988Z,100578.98
2023-02-04T19:46:35.099Z,100573.80
2023-02-04T19:47:43.984Z,100573.06
2023-02-04T19:48:47.641Z,100578.32
2023-02-04T19:49:53.461Z,100583.27
2023-02-04T19:50:56.700Z,100575.44
2023-02-04T19:51:58.931Z,100580.56
2023-02-04T19:53:03.656Z,100583.13
2023-02-04T19:54:08.713Z,100581.47
2023-02-04T19:55:19.127Z,100580.53
2023-02-04T19:56:28.972Z,100574.39
2023-02-04T19:57:33.913Z,100586.67
2023-02-04T19:58:41.176Z,100571.80
2023-02-04T19:59:44.219Z,100583.15
2023-02-04T20:00:48.588Z,100581.66
2023-02-04T20:01:58.549Z,100587.90
2023-02-04T20:03:06.490Z,100581.05
2023-02-04T20:04:12.619Z,100580.02
2023-02-04T20:05:19.628Z,100582.52
2023-02-04T20:06:28.082Z,100594.55
2023-02-04T20:07:33.560Z,100591.27
2023-02-04T20:08:43.438Z,100595.53
2023-02-04T20:09:47.477Z,100590.31
2023-02-04T20:10:50.572Z,100592.75
2023-02-04T20:11:55.662Z,100591.09
2023-02-04T20:13:00.578Z,100586.14
2023-02-04T20:14:13.659Z,100590.98
2023-02-04T20:15:17.783Z,100588.36
2023-02-04T20:16:24.440Z,100597.41
2023-02-04T20:17:29.340Z,100586.41
2023-02-04T20:18:32.876Z,100590.67
2023-02-04T20:19:38.985Z,100582.84
2023-02-04T20:20:44.510Z,100584.45
2023-02-04T20:21:49.122Z,100588.05
2023-02-04T20:22:53.366Z,100593.28
2023-02-04T20:23:56.011Z,100589.02
2023-02-04T20:25:03.732Z,100593.39
2023-02-04T20:26:07.975Z,100590.73
2023-02-04T20:27:19.619Z,100595.02
2023-02-04T20:28:28.535Z,100593.91
2023-02-04T20:29:32.731Z,100596.52
2023-02-04T20:30:34.899Z,100599.33
2023-02-04T20:31:40.404Z,100596.75
2023-02-04T20:32:45.566Z,100598.59
2023-02-04T20:33:48.925Z,100594.16
2023-02-04T20:34:55.654Z,100597.60
2023-02-04T20:36:18.991Z,100590.64
2023-02-04T20:37:28.639Z,100590.48
2023-02-04T20:38:31.703Z,100597.44
2023-02-04T20:40:50.185Z,100608.12
2023-02-04T20:41:53.468Z,100597.77
2023-02-04T20:43:00.386Z,100596.83
2023-02-04T20:44:14.584Z,100601.32
2023-02-04T20:45:20.610Z,100597.83
2023-02-04T20:46:28.246Z,100602.20
2023-02-04T20:47:36.063Z,100603.94
2023-02-04T20:48:39.569Z,100593.70
2023-02-04T20:49:46.834Z,100607.42
2023-02-04T20:50:53.473Z,100602.17
2023-02-04T20:51:59.584Z,100600.49
2023-02-04T20:53:03.827Z,100599.58
2023-02-04T20:54:11.922Z,100606.45
2023-02-04T20:55:25.493Z,100604.77
2023-02-04T20:56:34.458Z,100605.57
2023-02-04T20:57:37.793Z,100602.24
2023-02-04T20:58:43.909Z,100616.00
2023-02-04T20:59:49.186Z,100611.85
2023-02-04T21:00:54.369Z,100609.13
2023-02-04T21:01:56.832Z,100615.11
2023-02-04T21:03:04.289Z,100612.52
2023-02-04T21:04:23.912Z,100613.40
2023-02-04T21:05:26.774Z,100611.66
2023-02-04T21:06:32.364Z,100609.28
2023-02-04T21:07:35.544Z,100619.70
2023-02-04T21:08:43.439Z,100615.25
2023-02-04T21:09:56.268Z,100617.05
2023-02-04T21:10:59.964Z,100612.76
2023-02-04T21:12:02.944Z,100616.28
2023-02-04T21:13:05.938Z,100615.45
2023-02-04T21:14:12.769Z,100623.02
2023-02-04T21:15:17.329Z,100618.72
2023-02-04T21:16:21.341Z,100623.14
2023-02-04T21:17:25.493Z,100623.94
2023-02-04T21:18:29.539Z,100631.84
2023-02-04T21:19:33.437Z,100624.02
2023-02-04T21:20:36.615Z,100629.22
2023-02-04T21:21:43.147Z,100629.23
2023-02-04T21:22:48.335Z,100623.26
2023-02-04T21:23:52.051Z,100629.97
2023-02-04T21:24:54.812Z,100631.72
2023-02-04T21:25:57.169Z,100630.83
2023-02-04T21:27:00.695Z,100625.60
2023-02-04T21:28:05.005Z,100623.27
2023-02-04T21:29:08.026Z,100630.00
2023-02-04T21:30:12.232Z,100631.70
2023-02-04T21:31:16.454Z,100635.86
2023-02-04T21:32:19.727Z,100636.67
2023-02-04T21:33:23.072Z,100635.89
2023-02-04T21:34:25.310Z,100630.86
2023-02-04T21:35:33.040Z,100637.08
2023-02-04T21:36:36.829Z,100630.24
2023-02-04T21:37:39.083Z,100635.53
2023-02-04T21:38:42.360Z,100632.05
2023-02-04T21:39:46.712Z,100638.06
2023-02-04T21:40:50.306Z,100636.27
2023-02-04T21:41:54.980Z,100637.02
2023-02-04T21:42:59.135Z,100636.95
2023-02-04T21:44:02.613Z,100636.16
2023-02-04T21:45:05.632Z,100630.19
2023-02-04T21:46:08.277Z,100634.58
2023-02-04T21:47:12.814Z,100638.91
2023-02-04T21:48:15.957Z,100638.03
2023-02-04T21:49:18.469Z,100635.44
2023-02-04T21:50:21.974Z,100634.55
2023-02-04T21:51:29.892Z,100638.91
2023-02-04T21:52:33.262Z,100637.99
2023-02-04T21:53:37.607Z,100638.14
2023-02-04T21:54:41.054Z,100641.63
2023-02-04T21:55:47.434Z,100636.50
2023-02-04T21:56:51.032Z,100634.66
2023-02-04T21:57:54.223Z,100638.06
2023-02-04T21:58:58.786Z,100637.37
2023-02-04T22:00:01.551Z,100637.28
2023-02-04T22:01:05.144Z,100640.71
2023-02-04T22:02:08.557Z,100640.67
2023-02-04T22:03:12.944Z,100641.59
2023-02-04T22:04:16.417Z,100638.33
2023-02-04T22:05:19.598Z,100644.41
2023-02-04T22:06:22.853Z,100643.36
2023-02-04T22:07:25.345Z,100643.42
2023-02-04T22:08:29.911Z,100646.92
2023-02-04T22:09:32.267Z,100646.85
2023-02-04T22:10:35.493Z,100647.72
2023-02-04T22:11:38.689Z,100641.53
2023-02-04T22:12:42.043Z,100654.61
2023-02-04T22:13:47.867Z,100652.86
2023-02-04T22:15:10.892Z,100652.13
2023-02-04T22:16:15.679Z,100658.09
2023-02-04T22:17:19.364Z,100649.34
2023-02-04T22:18:21.607Z,100655.48
2023-02-04T22:19:26.258Z,100663.45
2023-02-04T22:20:29.785Z,100661.72
2023-02-04T22:21:35.872Z,100652.95
2023-02-04T22:22:39.285Z,100651.16
2023-02-04T22:23:42.691Z,100652.84
2023-02-04T22:24:47.926Z,100662.40